Impacts TAF Board INFO
FOR SITUATIONAL AWARENESS. NOT TO BE USED FOR FLIGHT PLANNING PURPOSES.
IDs:

KPDX - Portland Intl Arpt, OR, US

Issued at 2320 UTC 24 Feb 2018
Updated at 2348 UTC 24 Feb 2018
Potential Impact None Slight Moderate High
Time2253Z 25/00Z 25/01Z 25/02Z 25/03Z 25/04Z 25/05Z 25/06Z 25/07Z 25/08Z 25/09Z 25/10Z 25/11Z 25/12Z>>
Type OBS PRVL PRVL PRVL PRVL PRVL PRVL PRVL PRVL PRVL PRVL PRVL PRVL PRVL
VIS 10 >6 >6 >6 >6 >6 >6 >6 >6 >6 >6 >6 >6 >6
CIG -- 45 45 45 45 45 80 80 80 80 80 80 40 40
Cover SCT BKN BKN BKN BKN BKN BKN BKN BKN BKN BKN BKN OVC OVC
FltCat VFR VFR VFR VFR VFR VFR VFR VFR VFR VFR VFR VFR VFR VFR
WX -- VCSH VCSH VCSH VCSH VCSH -- -- -- -- -- -- -RA -RA
WDir 290 280 280 280 280 280 220 220 220 220 220 220 190 190
WSpd 12 10 10 10 10 10 8 8 8 8 8 8 12 12
WGst -- -- -- -- -- -- -- -- -- -- -- -- 20 20

Raw TAF
KPDX 242320Z 2500/2524 28010KT P6SM VCSH SCT025 BKN045 BKN070
  FM250500 22008KT P6SM SCT045 BKN080
  FM251100 19012G20KT P6SM -RA OVC040
  FM251300 19014G24KT 6SM -RA BKN022 OVC035
  FM251600 20012G19KT 5SM RA BKN015 OVC030
  FM252000 22012KT P6SM -SHRA SCT020 BKN035 OVC045


Raw METAR
KPDX 242253Z 29012KT 10SM FEW028 SCT060 SCT250 09/01 A3021 RMK AO2 RAE07 SLP229 P0000 T00890006
KPDX 242153Z 26016KT 10SM -RA FEW030 BKN045 BKN250 09/02 A3019 RMK AO2 RAB49 SLP223 P0000 T00940017
KPDX 242053Z 28014KT 10SM FEW028 BKN045 BKN060 09/01 A3018 RMK AO2 SLP218 T00890011 51015

METAR Board
Radar Display
Forecast Discussion

FOR SITUATIONAL AWARENESS. NOT TO BE USED FOR FLIGHT PLANNING PURPOSES.